createdAt,value
2016-08-08T00:00:42.916Z,0
2016-08-08T00:01:42.874Z,0
2016-08-08T00:02:43.395Z,0
2016-08-08T00:03:42.849Z,0
2016-08-08T00:04:42.890Z,0
2016-08-08T00:05:42.844Z,0
2016-08-08T00:06:42.895Z,0
2016-08-08T00:07:42.907Z,0
2016-08-08T00:08:42.924Z,0
2016-08-08T00:09:42.878Z,0
2016-08-08T00:10:42.910Z,0
2016-08-08T00:11:42.903Z,0
2016-08-08T00:12:42.913Z,0
2016-08-08T00:13:42.879Z,0
2016-08-08T00:14:42.867Z,0
2016-08-08T00:15:42.916Z,0
2016-08-08T00:16:42.924Z,0
2016-08-08T00:17:43.031Z,0
2016-08-08T00:18:42.912Z,0
2016-08-08T00:20:42.856Z,0
2016-08-08T00:21:43.243Z,0
2016-08-08T00:22:43.477Z,0
2016-08-08T00:23:43.464Z,0
2016-08-08T00:24:42.951Z,0
2016-08-08T00:25:42.919Z,0
2016-08-08T00:27:43.033Z,0
2016-08-08T00:28:42.920Z,0
2016-08-08T00:29:42.954Z,0
2016-08-08T00:30:43.100Z,0
2016-08-08T00:31:42.908Z,0
2016-08-08T00:32:42.951Z,0
2016-08-08T00:33:42.898Z,0
2016-08-08T00:34:43.304Z,0
2016-08-08T00:35:42.883Z,0
2016-08-08T00:36:42.891Z,0
2016-08-08T00:37:42.946Z,0
2016-08-08T00:38:42.974Z,0
2016-08-08T00:39:42.975Z,0
2016-08-08T00:40:42.939Z,0
2016-08-08T00:42:42.881Z,0
2016-08-08T00:43:43.172Z,0
2016-08-08T00:44:42.905Z,0
2016-08-08T00:45:42.946Z,0
2016-08-08T00:46:43.122Z,0
2016-08-08T00:47:42.883Z,0
2016-08-08T00:48:42.940Z,0
2016-08-08T00:49:42.942Z,0
2016-08-08T00:50:42.880Z,0
2016-08-08T00:51:43.134Z,0
2016-08-08T00:52:42.910Z,0
2016-08-08T00:53:42.969Z,0
2016-08-08T00:54:42.977Z,0
2016-08-08T00:55:43.155Z,0
2016-08-08T00:57:43.243Z,0
2016-08-08T00:58:42.870Z,0
2016-08-08T00:59:42.949Z,0
2016-08-08T01:00:43.388Z,0
2016-08-08T01:01:42.942Z,0
2016-08-08T01:02:42.979Z,0
2016-08-08T01:03:42.933Z,0
2016-08-08T01:04:42.881Z,0
2016-08-08T01:05:43.469Z,0
2016-08-08T01:06:43.014Z,0
2016-08-08T01:07:42.913Z,0
2016-08-08T01:08:43.079Z,0
2016-08-08T01:09:42.944Z,0
2016-08-08T01:10:43.271Z,0
2016-08-08T01:12:43.979Z,0
2016-08-08T01:13:43.036Z,0
2016-08-08T01:14:43.014Z,0
2016-08-08T01:15:44.003Z,0
2016-08-08T01:16:42.913Z,0
2016-08-08T01:17:43.641Z,0
2016-08-08T01:18:44.290Z,0
2016-08-08T01:19:43.620Z,0
2016-08-08T01:20:42.942Z,0
2016-08-08T01:21:43.561Z,0
2016-08-08T01:22:42.936Z,0
2016-08-08T01:23:42.931Z,0
2016-08-08T01:24:43.100Z,0
2016-08-08T01:25:42.959Z,0
2016-08-08T01:26:43.490Z,0
2016-08-08T01:27:42.942Z,0
2016-08-08T01:28:43.266Z,0
2016-08-08T01:29:42.944Z,0
2016-08-08T01:30:43.447Z,0
2016-08-08T01:31:43.254Z,0
2016-08-08T01:32:42.981Z,0
2016-08-08T01:33:42.959Z,0
2016-08-08T01:34:42.984Z,0
2016-08-08T01:35:43.179Z,0
2016-08-08T01:36:42.943Z,0
2016-08-08T01:37:43.470Z,0
2016-08-08T01:38:44.005Z,0
2016-08-08T01:39:43.438Z,0
2016-08-08T01:40:43.372Z,0
2016-08-08T01:41:42.987Z,0
2016-08-08T01:42:43.023Z,0
2016-08-08T01:43:42.974Z,0
2016-08-08T01:44:43.454Z,0
2016-08-08T01:45:42.977Z,0
2016-08-08T01:46:43.063Z,0
2016-08-08T01:47:43.048Z,0
2016-08-08T01:48:43.058Z,0
2016-08-08T01:49:42.963Z,0
2016-08-08T01:50:42.981Z,0
2016-08-08T01:51:42.974Z,0
2016-08-08T01:52:42.974Z,0
2016-08-08T01:53:43.494Z,0
2016-08-08T01:54:42.959Z,0
2016-08-08T01:55:42.942Z,0
2016-08-08T01:56:43.026Z,0
2016-08-08T01:57:43.020Z,0
2016-08-08T01:58:43.431Z,0
2016-08-08T01:59:42.972Z,0
2016-08-08T02:00:43.393Z,0
2016-08-08T02:01:42.949Z,0
2016-08-08T02:02:42.972Z,0
2016-08-08T02:03:42.945Z,0
2016-08-08T02:04:42.970Z,0
2016-08-08T02:05:43.412Z,0
2016-08-08T02:06:43.005Z,0
2016-08-08T02:07:43.432Z,0
2016-08-08T02:08:42.945Z,0
2016-08-08T02:09:43.613Z,0
2016-08-08T02:10:43.002Z,0
2016-08-08T02:11:43.545Z,0
2016-08-08T02:12:42.990Z,0
2016-08-08T02:13:43.055Z,0
2016-08-08T02:14:43.428Z,0
2016-08-08T02:15:43.010Z,0
2016-08-08T02:16:43.818Z,0
2016-08-08T02:17:43.305Z,0
2016-08-08T02:18:43.585Z,0
2016-08-08T02:19:42.991Z,0
2016-08-08T02:20:43.480Z,0
2016-08-08T02:21:42.978Z,0
2016-08-08T02:22:43.005Z,0
2016-08-08T02:23:43.559Z,0
2016-08-08T02:24:43.066Z,0
2016-08-08T02:25:43.504Z,0
2016-08-08T02:26:43.169Z,0
2016-08-08T02:27:43.082Z,0
2016-08-08T02:28:42.983Z,0
2016-08-08T02:29:43.332Z,0
2016-08-08T02:30:42.997Z,0
2016-08-08T02:31:42.984Z,0
2016-08-08T02:32:43.066Z,0
2016-08-08T02:33:43.005Z,0
2016-08-08T02:34:43.523Z,0
2016-08-08T02:35:43.019Z,0
2016-08-08T02:36:43.010Z,0
2016-08-08T02:37:43.037Z,0
2016-08-08T02:38:42.993Z,0
2016-08-08T02:39:43.187Z,0
2016-08-08T02:40:43.010Z,0
2016-08-08T02:41:43.007Z,0
2016-08-08T02:42:44.972Z,0
2016-08-08T02:43:44.077Z,0
2016-08-08T02:44:46.360Z,0
2016-08-08T02:45:43.448Z,0
2016-08-08T02:46:44.242Z,0
2016-08-08T02:47:43.287Z,0
2016-08-08T02:48:43.398Z,0
2016-08-08T02:49:44.565Z,0
2016-08-08T02:50:43.847Z,0
2016-08-08T02:51:43.415Z,0
2016-08-08T02:52:44.793Z,0
2016-08-08T02:53:43.634Z,0
2016-08-08T02:54:44.718Z,0
2016-08-08T02:55:43.016Z,0
2016-08-08T02:56:43.590Z,0
2016-08-08T02:57:43.142Z,0
2016-08-08T02:58:43.036Z,0
2016-08-08T02:59:43.279Z,0
2016-08-08T03:00:43.377Z,0
2016-08-08T03:01:43.759Z,0
2016-08-08T03:02:43.165Z,0
2016-08-08T03:03:43.676Z,0
2016-08-08T03:04:43.254Z,0
2016-08-08T03:05:43.126Z,0
2016-08-08T03:06:43.773Z,0
2016-08-08T03:07:43.137Z,0
2016-08-08T03:08:44.035Z,0
2016-08-08T03:09:43.346Z,0
2016-08-08T03:10:44.300Z,0
2016-08-08T03:11:44.063Z,0
2016-08-08T03:12:43.037Z,0
2016-08-08T03:13:43.128Z,0
2016-08-08T03:14:43.614Z,0
2016-08-08T03:15:43.081Z,0
2016-08-08T03:16:43.201Z,0
2016-08-08T03:17:43.343Z,0
2016-08-08T03:18:43.521Z,0
2016-08-08T03:19:43.158Z,0
2016-08-08T03:20:43.527Z,4
2016-08-08T03:21:43.297Z,4
2016-08-08T03:22:43.369Z,4
2016-08-08T03:23:43.107Z,0
2016-08-08T03:24:43.221Z,0
2016-08-08T03:25:45.188Z,4
2016-08-08T03:26:44.149Z,4
2016-08-08T03:27:43.399Z,4
2016-08-08T03:28:43.699Z,4
2016-08-08T03:29:43.776Z,8
2016-08-08T03:30:43.394Z,4
2016-08-08T03:31:44.060Z,8
2016-08-08T03:32:44.519Z,8
2016-08-08T03:33:43.368Z,8
2016-08-08T03:34:43.417Z,12
2016-08-08T03:35:43.328Z,16
2016-08-08T03:36:44.424Z,16
2016-08-08T03:37:43.414Z,20
2016-08-08T03:38:43.042Z,20
2016-08-08T03:39:43.106Z,24
2016-08-08T03:40:45.242Z,28
2016-08-08T03:41:43.103Z,28
2016-08-08T03:42:43.399Z,36
2016-08-08T03:43:43.630Z,44
2016-08-08T03:44:43.143Z,52
2016-08-08T03:45:43.093Z,56
2016-08-08T03:46:43.686Z,64
2016-08-08T03:47:43.129Z,72
2016-08-08T03:48:43.393Z,80
2016-08-08T03:49:43.312Z,92
2016-08-08T03:50:43.291Z,100
2016-08-08T03:51:43.682Z,112
2016-08-08T03:52:43.254Z,124
2016-08-08T03:53:43.306Z,136
2016-08-08T03:54:43.232Z,144
2016-08-08T03:55:43.506Z,152
2016-08-08T03:56:43.124Z,164
2016-08-08T03:57:44.333Z,176
2016-08-08T03:58:43.229Z,188
2016-08-08T03:59:44.308Z,204
2016-08-08T04:00:43.369Z,220
2016-08-08T04:01:43.172Z,236
2016-08-08T04:02:43.420Z,248
2016-08-08T04:03:43.334Z,264
2016-08-08T04:04:43.164Z,284
2016-08-08T04:05:43.161Z,300
2016-08-08T04:06:43.279Z,312
2016-08-08T04:07:43.212Z,324
2016-08-08T04:08:44.435Z,348
2016-08-08T04:09:43.772Z,376
2016-08-08T04:10:43.162Z,404
2016-08-08T04:11:43.799Z,436
2016-08-08T04:12:43.260Z,472
2016-08-08T04:13:43.250Z,500
2016-08-08T04:14:43.231Z,536
2016-08-08T04:15:43.775Z,564
2016-08-08T04:16:43.289Z,592
2016-08-08T04:17:43.431Z,616
2016-08-08T04:18:43.433Z,636
2016-08-08T04:19:43.691Z,648
2016-08-08T04:20:44.092Z,676
2016-08-08T04:21:43.664Z,716
2016-08-08T04:22:43.530Z,768
2016-08-08T04:23:43.570Z,808
2016-08-08T04:24:43.120Z,828
2016-08-08T04:25:43.194Z,864
2016-08-08T04:26:43.583Z,912
2016-08-08T04:27:43.850Z,948
2016-08-08T04:28:44.002Z,948
2016-08-08T04:29:43.855Z,952
2016-08-08T04:30:43.643Z,996
2016-08-08T04:31:43.568Z,1080
2016-08-08T04:32:43.263Z,1152
2016-08-08T04:33:43.461Z,1168
2016-08-08T04:34:43.451Z,1156
2016-08-08T04:35:43.760Z,1172
2016-08-08T04:36:43.403Z,1248
2016-08-08T04:37:43.309Z,1336
2016-08-08T04:38:43.743Z,1412
2016-08-08T04:39:43.779Z,1516
2016-08-08T04:40:43.358Z,1488
2016-08-08T04:41:43.397Z,1488
2016-08-08T04:42:43.512Z,1580
2016-08-08T04:43:43.588Z,1500
2016-08-08T04:44:43.408Z,1784
2016-08-08T04:45:43.172Z,1924
2016-08-08T04:46:43.142Z,1928
2016-08-08T04:47:43.193Z,1996
2016-08-08T04:48:43.138Z,2124
2016-08-08T04:49:43.164Z,2168
2016-08-08T04:50:43.167Z,2304
2016-08-08T04:51:43.137Z,2716
2016-08-08T04:52:43.131Z,2916
2016-08-08T04:53:43.201Z,2704
2016-08-08T04:54:43.205Z,2716
2016-08-08T04:55:43.126Z,2868
2016-08-08T04:56:43.144Z,3092
2016-08-08T04:57:43.133Z,3244
2016-08-08T04:58:43.132Z,3212
2016-08-08T04:59:43.132Z,3272
2016-08-08T05:00:43.086Z,3284
2016-08-08T05:01:43.103Z,3428
2016-08-08T05:02:43.104Z,3552
2016-08-08T05:03:43.134Z,4364
2016-08-08T05:04:44.126Z,5888
2016-08-08T05:05:43.134Z,4392
2016-08-08T05:06:43.164Z,3816
2016-08-08T05:07:43.159Z,4028
2016-08-08T05:08:43.190Z,5084
2016-08-08T05:09:43.151Z,5840
2016-08-08T05:10:43.130Z,6380
2016-08-08T05:11:43.165Z,5436
2016-08-08T05:12:42.986Z,5932
2016-08-08T05:13:43.208Z,5356
2016-08-08T05:14:43.169Z,5788
2016-08-08T05:15:43.138Z,5664
2016-08-08T05:16:43.151Z,5604
2016-08-08T05:17:43.172Z,6548
2016-08-08T05:18:43.159Z,6556
2016-08-08T05:19:43.167Z,8760
2016-08-08T05:20:43.168Z,6884
2016-08-08T05:21:43.153Z,5992
2016-08-08T05:22:43.202Z,5564
2016-08-08T05:23:43.170Z,6604
2016-08-08T05:24:43.223Z,6552
2016-08-08T05:25:43.166Z,5348
2016-08-08T05:26:43.166Z,5864
2016-08-08T05:27:42.938Z,5304
2016-08-08T05:28:43.165Z,5628
2016-08-08T05:29:43.165Z,5768
2016-08-08T05:30:43.146Z,6364
2016-08-08T05:31:43.170Z,7636
2016-08-08T05:32:43.822Z,7976
2016-08-08T05:33:43.185Z,6848
2016-08-08T05:34:43.163Z,6164
2016-08-08T05:35:43.196Z,8036
2016-08-08T05:36:43.157Z,7336
2016-08-08T05:37:43.179Z,6692
2016-08-08T05:38:43.201Z,6532
2016-08-08T05:39:43.175Z,6872
2016-08-08T05:40:43.172Z,6348
2016-08-08T05:41:43.184Z,9028
2016-08-08T05:43:43.203Z,6564
2016-08-08T05:44:43.197Z,7084
2016-08-08T05:45:43.197Z,10940
2016-08-08T05:46:43.227Z,8396
2016-08-08T05:47:43.239Z,9364
2016-08-08T05:48:43.204Z,9072
2016-08-08T05:49:43.231Z,8216
2016-08-08T05:50:43.198Z,10768
2016-08-08T05:51:43.197Z,7824
2016-08-08T05:52:43.200Z,6264
2016-08-08T05:53:43.168Z,7636
2016-08-08T05:54:43.196Z,8096
2016-08-08T05:55:43.198Z,7304
2016-08-08T05:56:43.202Z,6664
2016-08-08T05:57:43.195Z,5816
2016-08-08T05:58:43.186Z,5740
2016-08-08T05:59:43.165Z,6684
2016-08-08T06:00:43.172Z,7264
2016-08-08T06:01:43.228Z,7852
2016-08-08T06:02:43.219Z,9748
2016-08-08T06:03:43.201Z,8328
2016-08-08T06:04:43.260Z,6584
2016-08-08T06:05:43.206Z,5268
2016-08-08T06:06:43.190Z,5004
2016-08-08T06:07:43.225Z,4608
2016-08-08T06:08:43.188Z,4192
2016-08-08T06:09:43.173Z,3640
2016-08-08T06:10:43.224Z,2832
2016-08-08T06:11:43.202Z,2796
2016-08-08T06:12:43.227Z,2952
2016-08-08T06:13:43.226Z,2472
2016-08-08T06:14:43.194Z,2264
2016-08-08T06:15:43.199Z,2736
2016-08-08T06:16:43.208Z,2636
2016-08-08T06:17:43.224Z,2232
2016-08-08T06:18:43.240Z,2516
2016-08-08T06:19:43.256Z,3076
2016-08-08T06:20:43.243Z,3220
2016-08-08T06:21:43.213Z,3144
2016-08-08T06:22:43.199Z,3456
2016-08-08T06:23:43.214Z,3820
2016-08-08T06:24:43.220Z,3232
2016-08-08T06:25:43.201Z,3040
2016-08-08T06:26:43.247Z,2696
2016-08-08T06:27:43.227Z,2260
2016-08-08T06:28:43.204Z,2460
2016-08-08T06:29:43.260Z,2160
2016-08-08T06:30:43.273Z,2044
2016-08-08T06:31:43.285Z,2008
2016-08-08T06:32:43.331Z,2012
2016-08-08T06:33:43.235Z,2308
2016-08-08T06:34:43.270Z,2468
2016-08-08T06:35:43.257Z,2480
2016-08-08T06:36:43.444Z,2624
2016-08-08T06:37:43.368Z,2740
2016-08-08T06:38:43.236Z,2844
2016-08-08T06:39:43.290Z,3172
2016-08-08T06:40:43.320Z,3760
2016-08-08T06:41:43.840Z,3956
2016-08-08T06:42:43.344Z,3716
2016-08-08T06:43:43.289Z,3540
2016-08-08T06:44:43.542Z,3396
2016-08-08T06:45:43.477Z,3240
2016-08-08T06:46:43.356Z,3220
2016-08-08T06:47:43.421Z,3388
2016-08-08T06:48:43.294Z,2996
2016-08-08T06:49:43.418Z,2880
2016-08-08T06:50:43.293Z,2912
2016-08-08T06:51:43.325Z,3120
2016-08-08T06:52:43.261Z,3184
2016-08-08T06:53:43.321Z,3264
2016-08-08T06:54:43.327Z,3208
2016-08-08T06:55:43.345Z,3248
2016-08-08T06:56:43.316Z,3156
2016-08-08T06:57:43.308Z,3396
2016-08-08T06:58:43.291Z,3296
2016-08-08T06:59:43.356Z,3600
2016-08-08T07:00:43.276Z,4000
2016-08-08T07:01:43.276Z,4516
2016-08-08T07:02:43.297Z,4416
2016-08-08T07:03:43.232Z,5076
2016-08-08T07:04:43.278Z,4836
2016-08-08T07:05:43.247Z,5108
2016-08-08T07:06:43.265Z,5204
2016-08-08T07:07:43.322Z,5132
2016-08-08T07:08:43.265Z,5496
2016-08-08T07:09:43.242Z,5896
2016-08-08T07:10:43.283Z,6268
2016-08-08T07:11:43.227Z,6608
2016-08-08T07:12:43.329Z,7160
2016-08-08T07:13:44.072Z,7568
2016-08-08T07:14:43.249Z,7748
2016-08-08T07:15:43.264Z,7824
2016-08-08T07:16:45.491Z,8084
2016-08-08T07:17:43.794Z,7676
2016-08-08T07:18:43.321Z,7284
2016-08-08T07:19:43.290Z,7456
2016-08-08T07:20:43.584Z,7572
2016-08-08T07:21:44.122Z,6752
2016-08-08T07:22:43.293Z,6728
2016-08-08T07:23:44.296Z,7300
2016-08-08T07:24:43.934Z,7248
2016-08-08T07:25:45.753Z,6860
2016-08-08T07:26:43.271Z,7408
2016-08-08T07:27:43.327Z,8264
2016-08-08T07:28:43.814Z,8460
2016-08-08T07:29:43.386Z,8492
2016-08-08T07:30:43.354Z,8456
2016-08-08T07:31:44.211Z,9024
2016-08-08T07:32:43.446Z,9680
2016-08-08T07:33:43.295Z,9792
2016-08-08T07:34:44.473Z,8920
2016-08-08T07:35:43.314Z,8664
2016-08-08T07:36:43.321Z,7768
2016-08-08T07:37:43.754Z,6536
2016-08-08T07:38:43.361Z,5788
2016-08-08T07:39:43.303Z,4752
2016-08-08T07:40:43.303Z,4728
2016-08-08T07:41:43.355Z,4264
2016-08-08T07:42:43.354Z,4308
2016-08-08T07:43:43.595Z,5040
2016-08-08T07:44:43.266Z,4472
2016-08-08T07:45:43.323Z,3964
2016-08-08T07:46:43.654Z,3864
2016-08-08T07:47:43.293Z,4184
2016-08-08T07:48:43.871Z,4232
2016-08-08T07:49:43.832Z,4436
2016-08-08T07:50:43.652Z,5052
2016-08-08T07:51:43.367Z,4448
2016-08-08T07:52:43.652Z,4540
2016-08-08T07:53:44.555Z,4104
2016-08-08T07:54:43.864Z,4700
2016-08-08T07:55:43.356Z,4748
2016-08-08T07:56:43.437Z,4292
2016-08-08T07:57:43.307Z,4376
2016-08-08T07:58:43.359Z,4448
2016-08-08T07:59:43.299Z,5008
2016-08-08T08:00:43.328Z,5252
2016-08-08T08:01:43.385Z,5752
2016-08-08T08:02:43.326Z,5812
2016-08-08T08:03:43.328Z,5400
2016-08-08T08:04:43.502Z,5280
2016-08-08T08:05:44.015Z,4576
2016-08-08T08:06:43.328Z,4972
2016-08-08T08:07:43.350Z,4948
2016-08-08T08:08:43.358Z,5432
2016-08-08T08:09:44.535Z,4740
2016-08-08T08:10:43.416Z,5484
2016-08-08T08:11:43.412Z,5968
2016-08-08T08:12:43.363Z,5212
2016-08-08T08:13:43.331Z,5948
2016-08-08T08:14:43.336Z,6388
2016-08-08T08:15:43.403Z,6384
2016-08-08T08:16:43.343Z,6644
2016-08-08T08:17:43.371Z,6676
2016-08-08T08:18:43.416Z,8028
2016-08-08T08:19:43.399Z,7644
2016-08-08T08:20:43.369Z,8812
2016-08-08T08:21:43.340Z,7192
2016-08-08T08:22:43.325Z,9344
2016-08-08T08:23:43.388Z,11276
2016-08-08T08:24:43.470Z,11432
2016-08-08T08:25:43.541Z,9464
2016-08-08T08:26:43.420Z,8572
2016-08-08T08:27:43.373Z,8816
2016-08-08T08:28:43.338Z,9160
2016-08-08T08:29:43.380Z,11060
2016-08-08T08:30:43.413Z,11168
2016-08-08T08:31:43.454Z,10488
2016-08-08T08:32:43.394Z,10744
2016-08-08T08:33:43.420Z,11036
2016-08-08T08:34:43.414Z,11612
2016-08-08T08:35:43.420Z,13448
2016-08-08T08:36:43.370Z,14480
2016-08-08T08:37:43.394Z,15232
2016-08-08T08:38:43.416Z,18528
2016-08-08T08:39:43.371Z,22304
2016-08-08T08:40:43.367Z,22432
2016-08-08T08:41:43.419Z,19872
2016-08-08T08:42:43.409Z,15504
2016-08-08T08:43:43.406Z,13644
2016-08-08T08:44:43.340Z,14492
2016-08-08T08:45:43.634Z,16668
2016-08-08T08:46:43.998Z,17732
2016-08-08T08:47:43.451Z,18880
2016-08-08T08:48:43.508Z,17192
2016-08-08T08:49:43.402Z,16900
2016-08-08T08:50:43.381Z,19520
2016-08-08T08:51:43.446Z,20064
2016-08-08T08:52:43.447Z,14656
2016-08-08T08:53:43.472Z,15900
2016-08-08T08:54:43.439Z,14344
2016-08-08T08:55:43.445Z,17532
2016-08-08T08:56:43.724Z,16076
2016-08-08T08:57:43.411Z,17704
2016-08-08T08:58:43.489Z,19936
2016-08-08T08:59:43.399Z,19232
2016-08-08T09:00:43.391Z,17780
2016-08-08T09:01:43.404Z,15388
2016-08-08T09:02:43.419Z,16140
2016-08-08T09:03:43.490Z,18848
2016-08-08T09:04:44.143Z,19904
2016-08-08T09:05:43.392Z,18752
2016-08-08T09:06:43.375Z,16304
2016-08-08T09:07:43.359Z,20320
2016-08-08T09:08:43.395Z,25440
2016-08-08T09:09:44.019Z,28192
2016-08-08T09:10:43.429Z,28384
2016-08-08T09:11:43.441Z,30976
2016-08-08T09:12:43.400Z,23168
2016-08-08T09:13:43.418Z,17888
2016-08-08T09:14:43.509Z,15380
2016-08-08T09:15:43.418Z,12764
2016-08-08T09:16:43.390Z,16428
2016-08-08T09:17:43.628Z,21088
2016-08-08T09:18:43.372Z,23104
2016-08-08T09:19:43.443Z,21664
2016-08-08T09:20:43.826Z,22784
2016-08-08T09:21:43.390Z,22400
2016-08-08T09:22:43.428Z,22240
2016-08-08T09:23:43.757Z,28544
2016-08-08T09:24:43.440Z,25888
2016-08-08T09:25:43.359Z,21856
2016-08-08T09:26:43.803Z,20992
2016-08-08T09:27:43.738Z,14504
2016-08-08T09:28:43.417Z,15516
2016-08-08T09:29:43.441Z,14916
2016-08-08T09:30:43.478Z,16968
2016-08-08T09:31:43.412Z,16112
2016-08-08T09:32:43.467Z,14940
2016-08-08T09:33:43.482Z,15440
2016-08-08T09:34:43.399Z,12560
2016-08-08T09:35:43.483Z,15760
2016-08-08T09:36:44.249Z,20192
2016-08-08T09:37:43.449Z,20960
2016-08-08T09:38:43.481Z,18724
2016-08-08T09:39:43.520Z,13240
2016-08-08T09:40:44.115Z,10856
2016-08-08T09:41:43.795Z,9244
2016-08-08T09:42:43.660Z,7904
2016-08-08T09:43:43.372Z,6288
2016-08-08T09:44:43.421Z,7600
2016-08-08T09:45:43.484Z,6692
2016-08-08T09:46:43.535Z,6328
2016-08-08T09:47:43.549Z,6668
2016-08-08T09:48:43.438Z,7036
2016-08-08T09:49:43.479Z,6512
2016-08-08T09:50:43.703Z,6760
2016-08-08T09:51:43.482Z,6052
2016-08-08T09:52:43.960Z,7140
2016-08-08T09:53:43.471Z,8816
2016-08-08T09:54:43.665Z,9412
2016-08-08T09:55:43.481Z,9868
2016-08-08T09:56:43.519Z,11624
2016-08-08T09:57:43.548Z,9472
2016-08-08T09:58:43.456Z,9132
2016-08-08T09:59:44.034Z,8916
2016-08-08T10:00:43.417Z,8588
2016-08-08T10:01:43.422Z,8040
2016-08-08T10:02:44.350Z,8144
2016-08-08T10:03:43.436Z,8048
2016-08-08T10:04:44.944Z,8872
2016-08-08T10:05:43.469Z,8692
2016-08-08T10:06:43.486Z,8416
2016-08-08T10:07:43.692Z,8456
2016-08-08T10:08:44.562Z,9664
2016-08-08T10:09:43.500Z,10012
2016-08-08T10:10:44.483Z,9120
2016-08-08T10:11:43.492Z,7996
2016-08-08T10:12:43.435Z,6772
2016-08-08T10:13:43.325Z,6732
2016-08-08T10:14:43.988Z,8520
2016-08-08T10:15:43.951Z,8416
2016-08-08T10:16:43.491Z,8628
2016-08-08T10:17:43.483Z,8840
2016-08-08T10:18:44.099Z,6524
2016-08-08T10:19:43.788Z,7152
2016-08-08T10:20:43.449Z,7448
2016-08-08T10:21:43.809Z,6848
2016-08-08T10:22:44.092Z,5860
2016-08-08T10:23:43.500Z,5992
2016-08-08T10:24:43.529Z,5716
2016-08-08T10:25:43.486Z,5276
2016-08-08T10:26:43.892Z,5096
2016-08-08T10:27:43.483Z,5048
2016-08-08T10:28:43.254Z,4916
2016-08-08T10:29:43.640Z,4776
2016-08-08T10:30:44.068Z,4776
2016-08-08T10:31:44.000Z,4684
2016-08-08T10:32:44.101Z,4412
2016-08-08T10:33:43.545Z,4124
2016-08-08T10:34:43.792Z,4156
2016-08-08T10:35:43.589Z,4132
2016-08-08T10:36:43.533Z,4020
2016-08-08T10:37:43.489Z,4200
2016-08-08T10:38:43.536Z,4012
2016-08-08T10:39:43.516Z,4176
2016-08-08T10:40:43.523Z,3768
2016-08-08T10:41:43.518Z,3860
2016-08-08T10:42:43.707Z,3968
2016-08-08T10:43:44.113Z,4076
2016-08-08T10:44:43.782Z,4412
2016-08-08T10:45:44.032Z,4016
2016-08-08T10:46:43.492Z,4268
2016-08-08T10:47:43.485Z,4268
2016-08-08T10:48:43.535Z,4560
2016-08-08T10:49:43.633Z,4972
2016-08-08T10:50:43.514Z,4364
2016-08-08T10:51:43.482Z,3772
2016-08-08T10:52:43.500Z,3204
2016-08-08T10:53:43.555Z,1884
2016-08-08T10:54:43.652Z,2204
2016-08-08T10:55:43.574Z,2444
2016-08-08T10:56:43.993Z,3320
2016-08-08T10:57:43.580Z,5464
2016-08-08T10:59:43.757Z,4284
2016-08-08T11:00:44.921Z,4252
2016-08-08T11:01:43.653Z,3732
2016-08-08T11:02:44.497Z,2740
2016-08-08T11:03:44.214Z,3596
2016-08-08T11:04:43.683Z,5076
2016-08-08T11:05:44.069Z,5604
2016-08-08T11:06:43.555Z,5000
2016-08-08T11:07:43.493Z,5288
2016-08-08T11:08:43.530Z,4928
2016-08-08T11:09:44.061Z,5128
2016-08-08T11:10:43.564Z,4420
2016-08-08T11:11:43.864Z,4064
2016-08-08T11:12:43.679Z,3956
2016-08-08T11:13:43.669Z,3228
2016-08-08T11:14:43.617Z,2640
2016-08-08T11:15:44.447Z,2520
2016-08-08T11:16:43.979Z,2692
2016-08-08T11:17:44.194Z,1884
2016-08-08T11:18:43.625Z,2084
2016-08-08T11:19:44.644Z,3496
2016-08-08T11:20:43.625Z,3936
2016-08-08T11:21:43.619Z,4436
2016-08-08T11:22:44.355Z,5008
2016-08-08T11:23:44.268Z,5212
2016-08-08T11:24:43.721Z,4940
2016-08-08T11:25:43.878Z,4684
2016-08-08T11:26:43.666Z,4420
2016-08-08T11:27:43.625Z,4520
2016-08-08T11:28:43.715Z,4800
2016-08-08T11:29:44.634Z,5136
2016-08-08T11:30:43.671Z,5548
2016-08-08T11:31:43.577Z,5756
2016-08-08T11:32:43.761Z,5448
2016-08-08T11:33:44.088Z,6616
2016-08-08T11:34:44.178Z,7024
2016-08-08T11:35:43.819Z,7424
2016-08-08T11:36:43.738Z,7216
2016-08-08T11:37:43.512Z,7660
2016-08-08T11:38:43.624Z,8148
2016-08-08T11:39:43.563Z,8216
2016-08-08T11:40:43.776Z,8072
2016-08-08T11:41:43.549Z,8556
2016-08-08T11:42:43.557Z,9192
2016-08-08T11:43:43.498Z,9908
2016-08-08T11:44:43.650Z,10132
2016-08-08T11:45:43.524Z,10192
2016-08-08T11:46:43.556Z,10060
2016-08-08T11:47:43.649Z,10364
2016-08-08T11:48:43.689Z,10360
2016-08-08T11:49:43.739Z,9904
2016-08-08T11:50:43.552Z,10044
2016-08-08T11:51:43.714Z,10520
2016-08-08T11:52:43.659Z,11464
2016-08-08T11:53:43.555Z,12704
2016-08-08T11:54:43.529Z,11932
2016-08-08T11:55:43.562Z,9924
2016-08-08T11:56:43.578Z,8940
2016-08-08T11:57:43.518Z,9116
2016-08-08T11:58:43.564Z,10020
2016-08-08T11:59:43.548Z,11084
2016-08-08T12:00:43.509Z,12576
2016-08-08T12:01:44.179Z,13984
2016-08-08T12:02:43.587Z,15436
2016-08-08T12:03:43.519Z,16168
2016-08-08T12:04:43.523Z,16112
2016-08-08T12:05:43.603Z,15948
2016-08-08T12:06:43.594Z,15632
2016-08-08T12:07:43.691Z,14840
2016-08-08T12:08:43.531Z,13864
2016-08-08T12:09:43.560Z,12664
2016-08-08T12:10:43.627Z,11740
2016-08-08T12:11:44.257Z,12592
2016-08-08T12:12:43.580Z,14924
2016-08-08T12:13:43.627Z,15608
2016-08-08T12:14:43.543Z,17272
2016-08-08T12:15:43.567Z,18304
2016-08-08T12:16:43.552Z,19040
2016-08-08T12:17:43.594Z,18172
2016-08-08T12:18:43.605Z,16388
2016-08-08T12:19:43.596Z,16592
2016-08-08T12:20:43.589Z,18200
2016-08-08T12:21:43.622Z,19680
2016-08-08T12:22:43.594Z,20960
2016-08-08T12:23:43.595Z,21760
2016-08-08T12:24:43.584Z,21216
2016-08-08T12:25:43.578Z,22912
2016-08-08T12:26:43.572Z,22688
2016-08-08T12:27:43.627Z,21344
2016-08-08T12:28:43.552Z,20864
2016-08-08T12:29:43.586Z,20448
2016-08-08T12:30:43.563Z,19008
2016-08-08T12:31:43.579Z,18432
2016-08-08T12:32:44.569Z,18016
2016-08-08T12:33:43.547Z,17900
2016-08-08T12:34:43.592Z,17040
2016-08-08T12:35:43.618Z,15068
2016-08-08T12:36:45.052Z,14640
2016-08-08T12:37:43.690Z,14560
2016-08-08T12:38:43.618Z,13964
2016-08-08T12:39:44.371Z,15072
2016-08-08T12:40:43.674Z,16044
2016-08-08T12:41:43.565Z,13620
2016-08-08T12:42:43.677Z,10952
2016-08-08T12:43:43.649Z,8744
2016-08-08T12:44:43.738Z,6912
2016-08-08T12:45:43.668Z,5744
2016-08-08T12:46:43.677Z,5184
2016-08-08T12:47:43.589Z,4912
2016-08-08T12:48:43.610Z,4840
2016-08-08T12:49:43.605Z,4876
2016-08-08T12:50:43.876Z,4944
2016-08-08T12:51:44.514Z,5000
2016-08-08T12:52:43.623Z,5172
2016-08-08T12:53:43.671Z,5360
2016-08-08T12:54:43.641Z,5656
2016-08-08T12:55:44.002Z,6000
2016-08-08T12:56:43.638Z,6336
2016-08-08T12:57:43.622Z,6664
2016-08-08T12:58:43.592Z,7128
2016-08-08T12:59:43.632Z,7564
2016-08-08T13:00:43.573Z,7872
2016-08-08T13:01:43.593Z,8028
2016-08-08T13:02:43.658Z,8112
2016-08-08T13:03:43.643Z,8200
2016-08-08T13:04:43.591Z,8456
2016-08-08T13:05:43.586Z,8316
2016-08-08T13:06:43.618Z,8388
2016-08-08T13:07:43.655Z,8640
2016-08-08T13:08:43.679Z,9612
2016-08-08T13:09:43.633Z,10000
2016-08-08T13:10:43.617Z,9596
2016-08-08T13:11:43.584Z,9572
2016-08-08T13:12:43.678Z,9800
2016-08-08T13:13:43.599Z,9912
2016-08-08T13:14:43.617Z,9888
2016-08-08T13:15:43.624Z,10056
2016-08-08T13:16:43.623Z,9984
2016-08-08T13:17:43.682Z,10136
2016-08-08T13:18:43.605Z,10300
2016-08-08T13:19:43.683Z,10412
2016-08-08T13:20:43.628Z,10568
2016-08-08T13:21:43.673Z,10576
2016-08-08T13:22:43.685Z,10904
2016-08-08T13:23:43.680Z,11212
2016-08-08T13:24:43.665Z,11680
2016-08-08T13:25:43.672Z,12720
2016-08-08T13:26:43.649Z,12500
2016-08-08T13:27:43.671Z,11660
2016-08-08T13:28:43.752Z,11548
2016-08-08T13:29:43.651Z,11696
2016-08-08T13:30:43.666Z,12484
2016-08-08T13:31:43.642Z,13192
2016-08-08T13:32:43.613Z,14504
2016-08-08T13:33:43.642Z,14276
2016-08-08T13:34:43.618Z,12892
2016-08-08T13:35:43.654Z,13980
2016-08-08T13:36:43.705Z,15852
2016-08-08T13:37:43.629Z,13796
2016-08-08T13:38:43.630Z,15016
2016-08-08T13:39:43.656Z,14340
2016-08-08T13:40:43.705Z,13280
2016-08-08T13:41:43.627Z,12568
2016-08-08T13:42:43.653Z,12988
2016-08-08T13:43:43.619Z,11516